Terminal Aerodrome Forecast
Issued by NWS Topeka, KS

Home | Current Version | Previous Version | Text Only | Print | Product List | Glossary Off
Versions: 1 2 3 4 5 6 7 8 9 10 11 12 13 14 15 16 17 18 19 20 21 22

000
FTUS43 KTOP 120400 AAA
TAFTOP
TAF AMD
KTOP 120408Z 1204/1224 02006KT P6SM OVC026
     FM120600 03007KT P6SM OVC018
     FM121300 02006KT 4SM -SHRA OVC010
     FM121700 01011KT P6SM VCSH OVC015
     FM122000 01010KT P6SM BKN025=

USA.gov is the U.S. government's official web portal to all federal, state and local government web resources and services.